sensor_id;sensor_type;location;lat;lon;timestamp;P1;durP1;ratioP1;P2;durP2;ratioP2
6207;SDS011;3137;51.550;7.060;2022-11-15T00:00:50;14.10;;;11.30;;
6207;SDS011;3137;51.550;7.060;2022-11-15T00:03:36;12.03;;;11.10;;
6207;SDS011;3137;51.550;7.060;2022-11-15T00:06:21;12.07;;;10.93;;
6207;SDS011;3137;51.550;7.060;2022-11-15T00:09:06;13.23;;;11.93;;
6207;SDS011;3137;51.550;7.060;2022-11-15T00:11:51;15.53;;;11.80;;
6207;SDS011;3137;51.550;7.060;2022-11-15T00:14:36;12.17;;;11.07;;
6207;SDS011;3137;51.550;7.060;2022-11-15T00:17:21;12.80;;;11.53;;
6207;SDS011;3137;51.550;7.060;2022-11-15T00:20:06;11.80;;;10.13;;
6207;SDS011;3137;51.550;7.060;2022-11-15T00:22:52;11.03;;;10.23;;
6207;SDS011;3137;51.550;7.060;2022-11-15T00:25:36;16.60;;;11.60;;
6207;SDS011;3137;51.550;7.060;2022-11-15T00:28:21;11.37;;;10.47;;
6207;SDS011;3137;51.550;7.060;2022-11-15T00:31:07;12.37;;;11.23;;
6207;SDS011;3137;51.550;7.060;2022-11-15T00:33:55;11.43;;;10.23;;
6207;SDS011;3137;51.550;7.060;2022-11-15T00:36:40;15.67;;;10.20;;
6207;SDS011;3137;51.550;7.060;2022-11-15T00:39:25;12.90;;;10.57;;
6207;SDS011;3137;51.550;7.060;2022-11-15T00:42:10;11.37;;;10.27;;
6207;SDS011;3137;51.550;7.060;2022-11-15T00:44:54;13.20;;;10.80;;
6207;SDS011;3137;51.550;7.060;2022-11-15T00:47:39;13.70;;;10.37;;
6207;SDS011;3137;51.550;7.060;2022-11-15T00:50:24;9.40;;;8.80;;
6207;SDS011;3137;51.550;7.060;2022-11-15T00:53:09;9.47;;;8.87;;
6207;SDS011;3137;51.550;7.060;2022-11-15T00:55:55;9.93;;;9.27;;
6207;SDS011;3137;51.550;7.060;2022-11-15T00:58:39;10.97;;;9.77;;
6207;SDS011;3137;51.550;7.060;2022-11-15T01:01:24;9.73;;;9.13;;
6207;SDS011;3137;51.550;7.060;2022-11-15T01:04:09;9.40;;;8.87;;
6207;SDS011;3137;51.550;7.060;2022-11-15T01:06:54;12.57;;;9.70;;
6207;SDS011;3137;51.550;7.060;2022-11-15T01:09:39;8.93;;;8.33;;
6207;SDS011;3137;51.550;7.060;2022-11-15T01:12:23;10.53;;;9.73;;
6207;SDS011;3137;51.550;7.060;2022-11-15T01:15:08;9.67;;;8.90;;
6207;SDS011;3137;51.550;7.060;2022-11-15T01:17:53;9.43;;;8.67;;
6207;SDS011;3137;51.550;7.060;2022-11-15T01:20:42;12.03;;;10.43;;
6207;SDS011;3137;51.550;7.060;2022-11-15T01:23:28;12.97;;;10.90;;
6207;SDS011;3137;51.550;7.060;2022-11-15T01:26:14;9.37;;;8.47;;
6207;SDS011;3137;51.550;7.060;2022-11-15T01:28:59;9.77;;;8.80;;
6207;SDS011;3137;51.550;7.060;2022-11-15T01:31:44;13.00;;;9.77;;
6207;SDS011;3137;51.550;7.060;2022-11-15T01:34:29;11.03;;;9.87;;
6207;SDS011;3137;51.550;7.060;2022-11-15T01:37:14;10.40;;;9.50;;
6207;SDS011;3137;51.550;7.060;2022-11-15T01:39:58;11.10;;;9.43;;
6207;SDS011;3137;51.550;7.060;2022-11-15T01:42:43;9.33;;;8.40;;
6207;SDS011;3137;51.550;7.060;2022-11-15T01:45:28;11.07;;;10.07;;
6207;SDS011;3137;51.550;7.060;2022-11-15T01:48:13;8.90;;;8.20;;
6207;SDS011;3137;51.550;7.060;2022-11-15T01:50:58;17.97;;;10.10;;
6207;SDS011;3137;51.550;7.060;2022-11-15T01:53:45;9.57;;;8.70;;
6207;SDS011;3137;51.550;7.060;2022-11-15T01:56:33;10.17;;;9.13;;
6207;SDS011;3137;51.550;7.060;2022-11-15T01:59:20;10.63;;;9.37;;
6207;SDS011;3137;51.550;7.060;2022-11-15T02:02:06;8.83;;;8.23;;
6207;SDS011;3137;51.550;7.060;2022-11-15T02:04:51;9.70;;;8.90;;
6207;SDS011;3137;51.550;7.060;2022-11-15T02:07:37;9.67;;;8.97;;
6207;SDS011;3137;51.550;7.060;2022-11-15T02:10:23;9.67;;;8.77;;
6207;SDS011;3137;51.550;7.060;2022-11-15T02:13:09;9.60;;;7.77;;
6207;SDS011;3137;51.550;7.060;2022-11-15T02:16:04;9.40;;;8.40;;
6207;SDS011;3137;51.550;7.060;2022-11-15T02:19:12;11.50;;;8.73;;
6207;SDS011;3137;51.550;7.060;2022-11-15T02:32:03;8.63;;;7.87;;
6207;SDS011;3137;51.550;7.060;2022-11-15T02:37:51;8.10;;;7.70;;
6207;SDS011;3137;51.550;7.060;2022-11-15T02:40:52;9.20;;;8.33;;
6207;SDS011;3137;51.550;7.060;2022-11-15T02:43:45;7.83;;;7.50;;
6207;SDS011;3137;51.550;7.060;2022-11-15T02:46:51;7.10;;;6.80;;
6207;SDS011;3137;51.550;7.060;2022-11-15T02:49:59;7.13;;;6.83;;
6207;SDS011;3137;51.550;7.060;2022-11-15T02:52:51;8.23;;;7.63;;
6207;SDS011;3137;51.550;7.060;2022-11-15T02:55:37;8.83;;;8.33;;
6207;SDS011;3137;51.550;7.060;2022-11-15T02:58:36;7.63;;;7.03;;
6207;SDS011;3137;51.550;7.060;2022-11-15T03:17:10;7.10;;;6.90;;
6207;SDS011;3137;51.550;7.060;2022-11-15T03:20:04;9.77;;;7.40;;
6207;SDS011;3137;51.550;7.060;2022-11-15T03:22:50;7.53;;;7.17;;
6207;SDS011;3137;51.550;7.060;2022-11-15T03:25:38;7.90;;;7.27;;
6207;SDS011;3137;51.550;7.060;2022-11-15T03:28:28;7.50;;;7.00;;
6207;SDS011;3137;51.550;7.060;2022-11-15T03:31:15;7.87;;;7.20;;
6207;SDS011;3137;51.550;7.060;2022-11-15T03:34:26;8.10;;;7.67;;
6207;SDS011;3137;51.550;7.060;2022-11-15T03:37:14;8.20;;;7.80;;
6207;SDS011;3137;51.550;7.060;2022-11-15T03:40:02;7.03;;;6.73;;
6207;SDS011;3137;51.550;7.060;2022-11-15T03:42:56;9.00;;;7.57;;
6207;SDS011;3137;51.550;7.060;2022-11-15T03:46:10;8.50;;;8.00;;
6207;SDS011;3137;51.550;7.060;2022-11-15T03:49:17;8.53;;;7.60;;
6207;SDS011;3137;51.550;7.060;2022-11-15T03:52:08;7.97;;;7.30;;
6207;SDS011;3137;51.550;7.060;2022-11-15T03:54:55;10.90;;;8.60;;
6207;SDS011;3137;51.550;7.060;2022-11-15T03:57:40;17.73;;;9.43;;
6207;SDS011;3137;51.550;7.060;2022-11-15T04:00:25;8.83;;;8.07;;
6207;SDS011;3137;51.550;7.060;2022-11-15T04:03:10;9.33;;;8.43;;
6207;SDS011;3137;51.550;7.060;2022-11-15T04:05:55;10.43;;;8.17;;
6207;SDS011;3137;51.550;7.060;2022-11-15T04:08:40;9.37;;;8.43;;
6207;SDS011;3137;51.550;7.060;2022-11-15T04:11:25;13.63;;;7.57;;
6207;SDS011;3137;51.550;7.060;2022-11-15T04:14:09;6.90;;;6.47;;
6207;SDS011;3137;51.550;7.060;2022-11-15T04:16:54;7.23;;;6.83;;
6207;SDS011;3137;51.550;7.060;2022-11-15T04:19:39;8.13;;;7.63;;
6207;SDS011;3137;51.550;7.060;2022-11-15T04:22:42;6.77;;;6.57;;
6207;SDS011;3137;51.550;7.060;2022-11-15T04:26:07;8.00;;;7.30;;
6207;SDS011;3137;51.550;7.060;2022-11-15T04:28:55;9.30;;;6.80;;
6207;SDS011;3137;51.550;7.060;2022-11-15T04:31:58;8.40;;;7.70;;
6207;SDS011;3137;51.550;7.060;2022-11-15T04:34:43;8.10;;;7.27;;
6207;SDS011;3137;51.550;7.060;2022-11-15T04:37:28;8.30;;;7.80;;
6207;SDS011;3137;51.550;7.060;2022-11-15T04:40:13;7.03;;;6.53;;
6207;SDS011;3137;51.550;7.060;2022-11-15T04:42:58;7.57;;;7.13;;
6207;SDS011;3137;51.550;7.060;2022-11-15T04:45:47;8.87;;;6.80;;
6207;SDS011;3137;51.550;7.060;2022-11-15T04:48:32;6.77;;;6.37;;
6207;SDS011;3137;51.550;7.060;2022-11-15T04:51:17;6.40;;;6.20;;
6207;SDS011;3137;51.550;7.060;2022-11-15T04:54:02;7.17;;;6.77;;
6207;SDS011;3137;51.550;7.060;2022-11-15T04:56:47;6.63;;;6.30;;
6207;SDS011;3137;51.550;7.060;2022-11-15T04:59:32;6.97;;;6.63;;
6207;SDS011;3137;51.550;7.060;2022-11-15T05:02:17;6.30;;;6.10;;
6207;SDS011;3137;51.550;7.060;2022-11-15T05:05:02;7.20;;;7.00;;
6207;SDS011;3137;51.550;7.060;2022-11-15T05:07:46;6.30;;;5.77;;
6207;SDS011;3137;51.550;7.060;2022-11-15T05:10:31;7.57;;;6.27;;
6207;SDS011;3137;51.550;7.060;2022-11-15T05:13:16;6.10;;;5.80;;
6207;SDS011;3137;51.550;7.060;2022-11-15T05:16:02;20.67;;;6.77;;
6207;SDS011;3137;51.550;7.060;2022-11-15T05:18:49;6.47;;;5.97;;
6207;SDS011;3137;51.550;7.060;2022-11-15T05:21:35;6.40;;;5.93;;
6207;SDS011;3137;51.550;7.060;2022-11-15T05:24:20;6.53;;;6.20;;
6207;SDS011;3137;51.550;7.060;2022-11-15T05:27:05;5.83;;;5.63;;
6207;SDS011;3137;51.550;7.060;2022-11-15T05:29:50;5.73;;;5.53;;
6207;SDS011;3137;51.550;7.060;2022-11-15T05:32:35;5.57;;;5.40;;
6207;SDS011;3137;51.550;7.060;2022-11-15T05:35:29;5.57;;;5.37;;
6207;SDS011;3137;51.550;7.060;2022-11-15T05:38:19;6.30;;;6.00;;
6207;SDS011;3137;51.550;7.060;2022-11-15T05:41:04;8.20;;;7.37;;
6207;SDS011;3137;51.550;7.060;2022-11-15T05:43:49;7.03;;;6.73;;
6207;SDS011;3137;51.550;7.060;2022-11-15T05:46:35;6.80;;;6.40;;
6207;SDS011;3137;51.550;7.060;2022-11-15T05:49:21;6.20;;;5.90;;
6207;SDS011;3137;51.550;7.060;2022-11-15T05:52:09;7.43;;;7.13;;
6207;SDS011;3137;51.550;7.060;2022-11-15T05:54:56;5.57;;;5.27;;
6207;SDS011;3137;51.550;7.060;2022-11-15T05:57:42;7.30;;;6.73;;
6207;SDS011;3137;51.550;7.060;2022-11-15T06:00:27;6.17;;;6.07;;
6207;SDS011;3137;51.550;7.060;2022-11-15T06:03:12;8.17;;;6.73;;
6207;SDS011;3137;51.550;7.060;2022-11-15T06:05:58;8.33;;;7.53;;
6207;SDS011;3137;51.550;7.060;2022-11-15T06:08:43;7.00;;;6.80;;
6207;SDS011;3137;51.550;7.060;2022-11-15T06:11:28;8.23;;;7.80;;
6207;SDS011;3137;51.550;7.060;2022-11-15T06:14:13;9.13;;;8.07;;
6207;SDS011;3137;51.550;7.060;2022-11-15T06:16:58;7.80;;;7.30;;
6207;SDS011;3137;51.550;7.060;2022-11-15T06:19:42;9.40;;;8.63;;
6207;SDS011;3137;51.550;7.060;2022-11-15T06:22:27;8.73;;;8.10;;
6207;SDS011;3137;51.550;7.060;2022-11-15T06:25:12;9.57;;;8.83;;
6207;SDS011;3137;51.550;7.060;2022-11-15T06:27:57;9.00;;;8.30;;
6207;SDS011;3137;51.550;7.060;2022-11-15T06:30:43;9.40;;;8.60;;
6207;SDS011;3137;51.550;7.060;2022-11-15T06:33:34;7.47;;;7.17;;
6207;SDS011;3137;51.550;7.060;2022-11-15T06:36:19;8.13;;;7.50;;
6207;SDS011;3137;51.550;7.060;2022-11-15T06:39:05;7.73;;;7.33;;
6207;SDS011;3137;51.550;7.060;2022-11-15T06:41:50;6.90;;;6.70;;
6207;SDS011;3137;51.550;7.060;2022-11-15T06:44:35;8.00;;;7.60;;
6207;SDS011;3137;51.550;7.060;2022-11-15T06:47:20;8.00;;;7.27;;
6207;SDS011;3137;51.550;7.060;2022-11-15T06:50:04;7.70;;;7.20;;
6207;SDS011;3137;51.550;7.060;2022-11-15T06:52:50;6.03;;;5.73;;
6207;SDS011;3137;51.550;7.060;2022-11-15T06:55:35;7.83;;;6.87;;
6207;SDS011;3137;51.550;7.060;2022-11-15T06:58:20;7.23;;;6.83;;
6207;SDS011;3137;51.550;7.060;2022-11-15T07:01:07;6.13;;;6.03;;
6207;SDS011;3137;51.550;7.060;2022-11-15T07:03:54;6.50;;;5.97;;
6207;SDS011;3137;51.550;7.060;2022-11-15T07:06:39;7.63;;;7.03;;
6207;SDS011;3137;51.550;7.060;2022-11-15T07:09:23;8.73;;;7.83;;
6207;SDS011;3137;51.550;7.060;2022-11-15T07:12:08;6.93;;;6.00;;
6207;SDS011;3137;51.550;7.060;2022-11-15T07:14:53;7.27;;;6.13;;
6207;SDS011;3137;51.550;7.060;2022-11-15T07:17:38;7.97;;;7.23;;
6207;SDS011;3137;51.550;7.060;2022-11-15T07:20:22;7.93;;;7.03;;
6207;SDS011;3137;51.550;7.060;2022-11-15T07:23:07;6.83;;;6.20;;
6207;SDS011;3137;51.550;7.060;2022-11-15T07:25:52;6.80;;;6.43;;
6207;SDS011;3137;51.550;7.060;2022-11-15T07:28:38;6.77;;;6.30;;
6207;SDS011;3137;51.550;7.060;2022-11-15T07:31:23;6.37;;;5.87;;
6207;SDS011;3137;51.550;7.060;2022-11-15T07:34:08;6.63;;;6.23;;
6207;SDS011;3137;51.550;7.060;2022-11-15T07:36:54;5.40;;;5.00;;
6207;SDS011;3137;51.550;7.060;2022-11-15T07:39:39;4.70;;;4.47;;
6207;SDS011;3137;51.550;7.060;2022-11-15T07:42:23;4.97;;;4.57;;
6207;SDS011;3137;51.550;7.060;2022-11-15T07:45:27;4.20;;;4.00;;
6207;SDS011;3137;51.550;7.060;2022-11-15T07:48:13;5.43;;;5.13;;
6207;SDS011;3137;51.550;7.060;2022-11-15T07:50:58;4.37;;;4.17;;
6207;SDS011;3137;51.550;7.060;2022-11-15T07:53:43;4.97;;;4.67;;
6207;SDS011;3137;51.550;7.060;2022-11-15T07:56:29;5.37;;;5.17;;
6207;SDS011;3137;51.550;7.060;2022-11-15T07:59:13;6.80;;;5.30;;
6207;SDS011;3137;51.550;7.060;2022-11-15T08:01:58;3.67;;;3.53;;
6207;SDS011;3137;51.550;7.060;2022-11-15T08:04:44;3.20;;;3.20;;
6207;SDS011;3137;51.550;7.060;2022-11-15T08:07:29;4.23;;;4.03;;
6207;SDS011;3137;51.550;7.060;2022-11-15T08:10:15;3.80;;;3.60;;
6207;SDS011;3137;51.550;7.060;2022-11-15T08:13:04;3.27;;;3.17;;
6207;SDS011;3137;51.550;7.060;2022-11-15T08:15:57;4.40;;;4.20;;
6207;SDS011;3137;51.550;7.060;2022-11-15T08:18:42;3.57;;;3.47;;
6207;SDS011;3137;51.550;7.060;2022-11-15T08:21:27;3.67;;;3.47;;
6207;SDS011;3137;51.550;7.060;2022-11-15T08:24:12;3.70;;;3.50;;
6207;SDS011;3137;51.550;7.060;2022-11-15T08:26:56;3.10;;;3.00;;
6207;SDS011;3137;51.550;7.060;2022-11-15T08:29:44;3.10;;;3.10;;
6207;SDS011;3137;51.550;7.060;2022-11-15T08:32:30;2.90;;;2.80;;
6207;SDS011;3137;51.550;7.060;2022-11-15T08:35:16;2.83;;;2.73;;
6207;SDS011;3137;51.550;7.060;2022-11-15T08:38:01;2.23;;;2.23;;
6207;SDS011;3137;51.550;7.060;2022-11-15T08:40:46;1.80;;;1.80;;
6207;SDS011;3137;51.550;7.060;2022-11-15T08:43:30;2.23;;;2.23;;
6207;SDS011;3137;51.550;7.060;2022-11-15T08:46:16;2.67;;;2.33;;
6207;SDS011;3137;51.550;7.060;2022-11-15T08:49:03;2.03;;;2.03;;
6207;SDS011;3137;51.550;7.060;2022-11-15T08:51:47;2.07;;;2.07;;
6207;SDS011;3137;51.550;7.060;2022-11-15T08:54:32;2.77;;;2.67;;
6207;SDS011;3137;51.550;7.060;2022-11-15T08:57:17;2.83;;;2.83;;
6207;SDS011;3137;51.550;7.060;2022-11-15T09:00:03;2.50;;;2.50;;
6207;SDS011;3137;51.550;7.060;2022-11-15T09:02:48;2.90;;;2.90;;
6207;SDS011;3137;51.550;7.060;2022-11-15T09:05:32;3.47;;;3.47;;
6207;SDS011;3137;51.550;7.060;2022-11-15T09:08:20;2.80;;;2.80;;
6207;SDS011;3137;51.550;7.060;2022-11-15T09:11:25;2.83;;;2.83;;
6207;SDS011;3137;51.550;7.060;2022-11-15T09:14:11;4.07;;;3.23;;
6207;SDS011;3137;51.550;7.060;2022-11-15T09:16:57;3.30;;;3.20;;
6207;SDS011;3137;51.550;7.060;2022-11-15T09:19:43;3.13;;;3.13;;
6207;SDS011;3137;51.550;7.060;2022-11-15T09:22:28;3.07;;;3.07;;
6207;SDS011;3137;51.550;7.060;2022-11-15T09:25:13;3.10;;;2.90;;
6207;SDS011;3137;51.550;7.060;2022-11-15T09:27:58;3.50;;;3.40;;
6207;SDS011;3137;51.550;7.060;2022-11-15T09:30:43;3.13;;;3.13;;
6207;SDS011;3137;51.550;7.060;2022-11-15T09:33:28;2.17;;;2.17;;
6207;SDS011;3137;51.550;7.060;2022-11-15T09:36:14;2.40;;;2.40;;
6207;SDS011;3137;51.550;7.060;2022-11-15T09:38:59;2.37;;;2.00;;
6207;SDS011;3137;51.550;7.060;2022-11-15T09:45:15;1.77;;;1.77;;
6207;SDS011;3137;51.550;7.060;2022-11-15T09:57:03;1.90;;;1.90;;
6207;SDS011;3137;51.550;7.060;2022-11-15T09:59:45;2.23;;;2.07;;
6207;SDS011;3137;51.550;7.060;2022-11-15T10:02:27;1.40;;;1.40;;
6207;SDS011;3137;51.550;7.060;2022-11-15T10:04:57;1.77;;;1.77;;
6207;SDS011;3137;51.550;7.060;2022-11-15T10:10:41;1.50;;;1.50;;
6207;SDS011;3137;51.550;7.060;2022-11-15T10:13:20;1.30;;;1.20;;
6207;SDS011;3137;51.550;7.060;2022-11-15T10:15:50;3.87;;;1.80;;
6207;SDS011;3137;51.550;7.060;2022-11-15T10:22:15;1.97;;;1.87;;
6207;SDS011;3137;51.550;7.060;2022-11-15T10:24:23;3.03;;;1.80;;
6207;SDS011;3137;51.550;7.060;2022-11-15T10:26:51;1.97;;;1.80;;
6207;SDS011;3137;51.550;7.060;2022-11-15T10:29:21;1.70;;;1.60;;
6207;SDS011;3137;51.550;7.060;2022-11-15T10:31:52;1.50;;;1.50;;
6207;SDS011;3137;51.550;7.060;2022-11-15T10:34:21;1.40;;;1.40;;
6207;SDS011;3137;51.550;7.060;2022-11-15T10:36:56;7.70;;;1.93;;
6207;SDS011;3137;51.550;7.060;2022-11-15T10:39:23;1.73;;;1.73;;
6207;SDS011;3137;51.550;7.060;2022-11-15T10:41:49;2.27;;;2.27;;
6207;SDS011;3137;51.550;7.060;2022-11-15T10:47:06;1.70;;;1.60;;
6207;SDS011;3137;51.550;7.060;2022-11-15T10:50:06;1.43;;;1.43;;
6207;SDS011;3137;51.550;7.060;2022-11-15T10:52:50;1.67;;;1.57;;
6207;SDS011;3137;51.550;7.060;2022-11-15T10:57:48;2.37;;;2.27;;
6207;SDS011;3137;51.550;7.060;2022-11-15T11:03:08;3.70;;;1.97;;
6207;SDS011;3137;51.550;7.060;2022-11-15T11:05:47;2.33;;;2.23;;
6207;SDS011;3137;51.550;7.060;2022-11-15T11:10:42;1.87;;;1.87;;
6207;SDS011;3137;51.550;7.060;2022-11-15T11:13:28;2.37;;;1.90;;
6207;SDS011;3137;51.550;7.060;2022-11-15T11:18:57;2.27;;;2.20;;
6207;SDS011;3137;51.550;7.060;2022-11-15T11:21:41;1.83;;;1.83;;
6207;SDS011;3137;51.550;7.060;2022-11-15T11:24:14;1.50;;;1.50;;
6207;SDS011;3137;51.550;7.060;2022-11-15T11:26:46;1.47;;;1.47;;
6207;SDS011;3137;51.550;7.060;2022-11-15T11:35:12;1.83;;;1.73;;
6207;SDS011;3137;51.550;7.060;2022-11-15T11:43:11;2.13;;;2.00;;
6207;SDS011;3137;51.550;7.060;2022-11-15T11:51:20;1.60;;;1.60;;
6207;SDS011;3137;51.550;7.060;2022-11-15T11:53:50;1.97;;;1.97;;
6207;SDS011;3137;51.550;7.060;2022-11-15T11:56:29;1.90;;;1.70;;
6207;SDS011;3137;51.550;7.060;2022-11-15T11:59:16;2.27;;;2.10;;
6207;SDS011;3137;51.550;7.060;2022-11-15T12:01:43;10.80;;;1.97;;
6207;SDS011;3137;51.550;7.060;2022-11-15T12:04:13;2.47;;;2.43;;
6207;SDS011;3137;51.550;7.060;2022-11-15T12:06:57;2.10;;;1.90;;
6207;SDS011;3137;51.550;7.060;2022-11-15T12:09:41;5.40;;;1.20;;
6207;SDS011;3137;51.550;7.060;2022-11-15T12:12:10;1.10;;;1.10;;
6207;SDS011;3137;51.550;7.060;2022-11-15T12:15:20;1.47;;;1.47;;
6207;SDS011;3137;51.550;7.060;2022-11-15T12:17:30;1.87;;;1.87;;
6207;SDS011;3137;51.550;7.060;2022-11-15T12:20:02;1.50;;;1.40;;
6207;SDS011;3137;51.550;7.060;2022-11-15T12:25:20;1.50;;;1.30;;
6207;SDS011;3137;51.550;7.060;2022-11-15T12:27:49;4.23;;;2.27;;
6207;SDS011;3137;51.550;7.060;2022-11-15T12:30:19;1.60;;;1.60;;
6207;SDS011;3137;51.550;7.060;2022-11-15T12:38:09;1.37;;;1.37;;
6207;SDS011;3137;51.550;7.060;2022-11-15T12:40:37;1.10;;;1.10;;
6207;SDS011;3137;51.550;7.060;2022-11-15T12:45:50;4.73;;;1.00;;
6207;SDS011;3137;51.550;7.060;2022-11-15T13:01:06;1.30;;;1.20;;
6207;SDS011;3137;51.550;7.060;2022-11-15T13:03:33;1.60;;;1.60;;
6207;SDS011;3137;51.550;7.060;2022-11-15T13:06:02;1.50;;;1.50;;
6207;SDS011;3137;51.550;7.060;2022-11-15T13:08:40;1.63;;;1.63;;
6207;SDS011;3137;51.550;7.060;2022-11-15T13:13:55;2.40;;;2.30;;
6207;SDS011;3137;51.550;7.060;2022-11-15T13:16:21;1.40;;;1.40;;
6207;SDS011;3137;51.550;7.060;2022-11-15T13:18:54;1.47;;;1.47;;
6207;SDS011;3137;51.550;7.060;2022-11-15T13:21:22;2.00;;;1.43;;
6207;SDS011;3137;51.550;7.060;2022-11-15T13:24:10;1.17;;;1.17;;
6207;SDS011;3137;51.550;7.060;2022-11-15T13:26:38;3.50;;;1.53;;
6207;SDS011;3137;51.550;7.060;2022-11-15T13:29:14;1.40;;;1.40;;
6207;SDS011;3137;51.550;7.060;2022-11-15T13:31:42;1.43;;;1.43;;
6207;SDS011;3137;51.550;7.060;2022-11-15T13:34:17;1.27;;;1.27;;
6207;SDS011;3137;51.550;7.060;2022-11-15T13:37:12;1.33;;;1.33;;
6207;SDS011;3137;51.550;7.060;2022-11-15T13:39:53;1.03;;;1.03;;
6207;SDS011;3137;51.550;7.060;2022-11-15T13:42:20;1.50;;;1.00;;
6207;SDS011;3137;51.550;7.060;2022-11-15T13:44:57;1.30;;;1.30;;
6207;SDS011;3137;51.550;7.060;2022-11-15T13:47:27;1.50;;;1.40;;
6207;SDS011;3137;51.550;7.060;2022-11-15T13:49:56;1.53;;;1.43;;
6207;SDS011;3137;51.550;7.060;2022-11-15T13:52:25;1.67;;;1.57;;
6207;SDS011;3137;51.550;7.060;2022-11-15T13:55:01;1.50;;;1.50;;
6207;SDS011;3137;51.550;7.060;2022-11-15T13:57:30;1.90;;;1.10;;
6207;SDS011;3137;51.550;7.060;2022-11-15T14:00:06;1.40;;;1.30;;
6207;SDS011;3137;51.550;7.060;2022-11-15T14:02:50;2.03;;;1.87;;
6207;SDS011;3137;51.550;7.060;2022-11-15T14:05:22;1.60;;;1.60;;
6207;SDS011;3137;51.550;7.060;2022-11-15T14:07:54;1.33;;;1.33;;
6207;SDS011;3137;51.550;7.060;2022-11-15T14:10:25;1.67;;;1.57;;
6207;SDS011;3137;51.550;7.060;2022-11-15T14:12:58;1.23;;;1.23;;
6207;SDS011;3137;51.550;7.060;2022-11-15T14:17:59;1.43;;;1.33;;
6207;SDS011;3137;51.550;7.060;2022-11-15T14:50:19;1.77;;;1.77;;
6207;SDS011;3137;51.550;7.060;2022-11-15T14:52:47;2.10;;;2.00;;
6207;SDS011;3137;51.550;7.060;2022-11-15T14:56:06;1.73;;;1.73;;
6207;SDS011;3137;51.550;7.060;2022-11-15T15:00:18;8.40;;;1.40;;
6207;SDS011;3137;51.550;7.060;2022-11-15T15:02:45;4.80;;;1.10;;
6207;SDS011;3137;51.550;7.060;2022-11-15T15:05:14;1.17;;;1.17;;
6207;SDS011;3137;51.550;7.060;2022-11-15T15:07:51;1.20;;;1.20;;
6207;SDS011;3137;51.550;7.060;2022-11-15T15:10:19;1.30;;;1.30;;
6207;SDS011;3137;51.550;7.060;2022-11-15T15:13:08;1.90;;;1.17;;
6207;SDS011;3137;51.550;7.060;2022-11-15T15:22:28;1.40;;;1.40;;
6207;SDS011;3137;51.550;7.060;2022-11-15T15:24:56;6.33;;;1.80;;
6207;SDS011;3137;51.550;7.060;2022-11-15T15:27:23;2.23;;;2.13;;
6207;SDS011;3137;51.550;7.060;2022-11-15T15:29:49;2.80;;;2.80;;
6207;SDS011;3137;51.550;7.060;2022-11-15T15:32:15;3.43;;;2.10;;
6207;SDS011;3137;51.550;7.060;2022-11-15T15:34:42;2.53;;;2.53;;
6207;SDS011;3137;51.550;7.060;2022-11-15T15:39:53;13.13;;;3.13;;
6207;SDS011;3137;51.550;7.060;2022-11-15T15:42:21;4.03;;;3.93;;
6207;SDS011;3137;51.550;7.060;2022-11-15T15:44:50;4.40;;;4.20;;
6207;SDS011;3137;51.550;7.060;2022-11-15T15:47:21;2.80;;;2.80;;
6207;SDS011;3137;51.550;7.060;2022-11-15T15:49:49;3.40;;;3.40;;
6207;SDS011;3137;51.550;7.060;2022-11-15T15:52:16;4.67;;;4.40;;
6207;SDS011;3137;51.550;7.060;2022-11-15T15:54:43;3.97;;;3.83;;
6207;SDS011;3137;51.550;7.060;2022-11-15T15:57:11;4.90;;;3.07;;
6207;SDS011;3137;51.550;7.060;2022-11-15T15:59:38;3.47;;;2.43;;
6207;SDS011;3137;51.550;7.060;2022-11-15T16:02:05;4.17;;;3.97;;
6207;SDS011;3137;51.550;7.060;2022-11-15T16:04:32;3.47;;;3.47;;
6207;SDS011;3137;51.550;7.060;2022-11-15T16:06:59;2.83;;;2.80;;
6207;SDS011;3137;51.550;7.060;2022-11-15T16:09:26;4.90;;;3.33;;
6207;SDS011;3137;51.550;7.060;2022-11-15T16:12:11;2.67;;;2.53;;
6207;SDS011;3137;51.550;7.060;2022-11-15T16:14:38;2.53;;;2.53;;
6207;SDS011;3137;51.550;7.060;2022-11-15T16:17:04;2.93;;;2.93;;
6207;SDS011;3137;51.550;7.060;2022-11-15T16:19:31;3.30;;;3.10;;
6207;SDS011;3137;51.550;7.060;2022-11-15T16:21:57;2.73;;;2.73;;
6207;SDS011;3137;51.550;7.060;2022-11-15T16:24:23;2.63;;;2.63;;
6207;SDS011;3137;51.550;7.060;2022-11-15T16:26:50;3.40;;;3.17;;
6207;SDS011;3137;51.550;7.060;2022-11-15T16:29:17;2.73;;;2.73;;
6207;SDS011;3137;51.550;7.060;2022-11-15T16:31:43;3.20;;;3.20;;
6207;SDS011;3137;51.550;7.060;2022-11-15T16:34:10;3.53;;;3.33;;
6207;SDS011;3137;51.550;7.060;2022-11-15T16:36:36;3.30;;;3.10;;
6207;SDS011;3137;51.550;7.060;2022-11-15T16:39:03;3.60;;;3.37;;
6207;SDS011;3137;51.550;7.060;2022-11-15T16:41:30;3.20;;;3.20;;
6207;SDS011;3137;51.550;7.060;2022-11-15T16:43:57;3.57;;;3.17;;
6207;SDS011;3137;51.550;7.060;2022-11-15T16:46:24;6.93;;;3.23;;
6207;SDS011;3137;51.550;7.060;2022-11-15T16:48:52;3.43;;;3.43;;
6207;SDS011;3137;51.550;7.060;2022-11-15T16:51:19;2.77;;;2.67;;
6207;SDS011;3137;51.550;7.060;2022-11-15T16:53:45;3.20;;;2.90;;
6207;SDS011;3137;51.550;7.060;2022-11-15T16:56:17;3.47;;;3.33;;
6207;SDS011;3137;51.550;7.060;2022-11-15T16:58:46;9.27;;;3.80;;
6207;SDS011;3137;51.550;7.060;2022-11-15T17:01:17;3.70;;;3.40;;
6207;SDS011;3137;51.550;7.060;2022-11-15T17:03:46;3.93;;;3.83;;
6207;SDS011;3137;51.550;7.060;2022-11-15T17:06:13;5.17;;;4.80;;
6207;SDS011;3137;51.550;7.060;2022-11-15T17:08:40;4.40;;;4.20;;
6207;SDS011;3137;51.550;7.060;2022-11-15T17:11:07;3.67;;;3.57;;
6207;SDS011;3137;51.550;7.060;2022-11-15T17:13:33;3.47;;;3.30;;
6207;SDS011;3137;51.550;7.060;2022-11-15T17:16:04;3.60;;;3.50;;
6207;SDS011;3137;51.550;7.060;2022-11-15T17:18:32;3.60;;;3.33;;
6207;SDS011;3137;51.550;7.060;2022-11-15T17:21:03;4.00;;;3.87;;
6207;SDS011;3137;51.550;7.060;2022-11-15T17:23:31;3.80;;;3.27;;
6207;SDS011;3137;51.550;7.060;2022-11-15T17:26:02;4.00;;;3.90;;
6207;SDS011;3137;51.550;7.060;2022-11-15T17:28:53;7.30;;;3.57;;
6207;SDS011;3137;51.550;7.060;2022-11-15T17:31:20;2.87;;;2.83;;
6207;SDS011;3137;51.550;7.060;2022-11-15T17:33:46;3.37;;;3.37;;
6207;SDS011;3137;51.550;7.060;2022-11-15T17:36:13;3.20;;;3.20;;
6207;SDS011;3137;51.550;7.060;2022-11-15T17:38:42;3.67;;;3.57;;
6207;SDS011;3137;51.550;7.060;2022-11-15T17:41:11;4.13;;;3.50;;
6207;SDS011;3137;51.550;7.060;2022-11-15T17:43:39;3.00;;;3.00;;
6207;SDS011;3137;51.550;7.060;2022-11-15T17:46:07;3.93;;;3.73;;
6207;SDS011;3137;51.550;7.060;2022-11-15T17:48:36;3.50;;;3.50;;
6207;SDS011;3137;51.550;7.060;2022-11-15T17:51:05;3.27;;;3.13;;
6207;SDS011;3137;51.550;7.060;2022-11-15T17:53:33;4.93;;;3.03;;
6207;SDS011;3137;51.550;7.060;2022-11-15T17:56:03;3.17;;;3.07;;
6207;SDS011;3137;51.550;7.060;2022-11-15T17:58:30;3.30;;;3.17;;
6207;SDS011;3137;51.550;7.060;2022-11-15T18:01:08;3.10;;;3.10;;
6207;SDS011;3137;51.550;7.060;2022-11-15T18:03:35;2.37;;;2.37;;
6207;SDS011;3137;51.550;7.060;2022-11-15T18:06:05;4.17;;;3.97;;
6207;SDS011;3137;51.550;7.060;2022-11-15T18:08:36;3.00;;;3.00;;
6207;SDS011;3137;51.550;7.060;2022-11-15T18:13:36;3.33;;;3.20;;
6207;SDS011;3137;51.550;7.060;2022-11-15T18:16:05;2.87;;;2.87;;
6207;SDS011;3137;51.550;7.060;2022-11-15T18:18:35;3.70;;;3.50;;
6207;SDS011;3137;51.550;7.060;2022-11-15T18:21:12;3.00;;;3.00;;
6207;SDS011;3137;51.550;7.060;2022-11-15T18:23:47;3.20;;;3.20;;
6207;SDS011;3137;51.550;7.060;2022-11-15T18:26:15;3.10;;;3.00;;
6207;SDS011;3137;51.550;7.060;2022-11-15T18:28:43;3.60;;;3.50;;
6207;SDS011;3137;51.550;7.060;2022-11-15T18:31:21;3.47;;;3.37;;
6207;SDS011;3137;51.550;7.060;2022-11-15T18:33:50;3.90;;;3.83;;
6207;SDS011;3137;51.550;7.060;2022-11-15T18:36:27;4.33;;;4.17;;
6207;SDS011;3137;51.550;7.060;2022-11-15T18:38:55;3.83;;;3.53;;
6207;SDS011;3137;51.550;7.060;2022-11-15T18:41:23;4.63;;;4.43;;
6207;SDS011;3137;51.550;7.060;2022-11-15T18:43:53;3.80;;;3.70;;
6207;SDS011;3137;51.550;7.060;2022-11-15T18:46:22;4.00;;;4.00;;
6207;SDS011;3137;51.550;7.060;2022-11-15T18:48:50;4.13;;;4.03;;
6207;SDS011;3137;51.550;7.060;2022-11-15T18:51:21;3.87;;;3.87;;
6207;SDS011;3137;51.550;7.060;2022-11-15T18:53:54;4.87;;;4.83;;
6207;SDS011;3137;51.550;7.060;2022-11-15T18:56:22;5.93;;;5.60;;
6207;SDS011;3137;51.550;7.060;2022-11-15T18:58:50;4.67;;;4.57;;
6207;SDS011;3137;51.550;7.060;2022-11-15T19:01:20;5.10;;;4.80;;